Time;durP1;ratioP1;P1;durP2;ratioP2;P2;SDS_P1;SDS_P2;PMS_P1;PMS_P2;Temp;Humidity;BMP_temperature;BMP_pressure;BME280_temperature;BME280_humidity;BME280_pressure;Samples;Min_cycle;Max_cycle;Signal;HPM_P1;HPM_P2
2022/12/18 00:02:19;;;;;;;29.53;17.13;;;-1.90;40.00;;;;;;10446852;28;20255;-71
2022/12/18 00:07:22;;;;;;;26.07;16.03;;;-1.80;40.80;;;;;;10451756;28;20224;-71
2022/12/18 00:12:25;;;;;;;24.87;15.80;;;-1.70;40.10;;;;;;10451418;28;20237;-71
2022/12/18 00:17:33;;;;;;;30.30;17.57;;;-1.70;40.10;;;;;;10451515;28;20308;-71
2022/12/18 00:22:36;;;;;;;28.27;17.90;;;-1.60;40.30;;;;;;10451107;28;20259;-71
2022/12/18 00:27:39;;;;;;;26.57;16.03;;;-1.50;40.20;;;;;;10449649;28;20704;-71
2022/12/18 00:32:44;;;;;;;24.33;15.63;;;-1.50;40.20;;;;;;10450673;28;20240;-71
2022/12/18 00:37:47;;;;;;;25.07;16.20;;;-1.50;40.30;;;;;;10450828;28;20382;-71
2022/12/18 00:42:56;;;;;;;30.83;17.43;;;-1.40;40.20;;;;;;10450571;28;20236;-71
2022/12/18 00:48:00;;;;;;;29.73;16.83;;;-1.40;40.20;;;;;;10450021;28;20792;-70
2022/12/18 00:53:04;;;;;;;27.87;15.83;;;-1.40;40.40;;;;;;10449485;28;20229;-71
2022/12/18 00:58:07;;;;;;;26.70;15.77;;;-1.40;40.30;;;;;;10450257;28;20221;-71
2022/12/18 01:03:14;;;;;;;27.07;16.77;;;-1.40;41.10;;;;;;10449296;28;20720;-71
2022/12/18 01:08:17;;;;;;;28.93;17.10;;;-1.30;40.80;;;;;;10449723;28;20304;-71
2022/12/18 01:13:21;;;;;;;26.27;16.30;;;-1.30;40.70;;;;;;10448628;28;20232;-71
2022/12/18 01:18:25;;;;;;;26.63;16.27;;;-1.20;40.70;;;;;;10448777;28;20922;-71
2022/12/18 01:23:28;;;;;;;23.43;15.03;;;-1.20;40.80;;;;;;10448668;28;20773;-71
2022/12/18 01:28:31;;;;;;;25.93;15.47;;;-1.20;40.80;;;;;;10448893;28;20228;-71
2022/12/18 01:33:36;;;;;;;26.40;15.37;;;-1.20;40.90;;;;;;10448371;28;20274;-71
2022/12/18 01:38:39;;;;;;;20.57;13.13;;;-1.20;41.00;;;;;;10448250;28;20275;-71
2022/12/18 01:43:49;;;;;;;26.13;14.03;;;-1.10;40.90;;;;;;10448047;28;20298;-70
2022/12/18 01:48:57;;;;;;;21.67;12.83;;;-1.20;41.20;;;;;;10446482;28;20229;-71
2022/12/18 01:54:00;;;;;;;20.07;12.13;;;-1.10;41.30;;;;;;10449386;28;20293;-71
2022/12/18 01:59:07;;;;;;;22.13;12.90;;;-1.10;41.10;;;;;;10449636;28;20225;-71
2022/12/18 02:04:22;;;;;;;18.43;12.03;;;-1.10;41.20;;;;;;10450080;28;20237;-71
2022/12/18 02:09:33;;;;;;;20.63;12.03;;;-1.10;41.50;;;;;;10449381;28;20235;-71
2022/12/18 02:14:43;;;;;;;21.23;12.53;;;-1.10;41.30;;;;;;10449399;28;20606;-71
2022/12/18 02:20:02;;;;;;;21.17;12.93;;;-1.10;41.30;;;;;;10449276;28;20588;-71
2022/12/18 02:25:19;;;;;;;21.40;11.90;;;-1.10;41.50;;;;;;10447972;28;20229;-71
2022/12/18 02:30:24;;;;;;;21.77;12.17;;;-1.10;41.60;;;;;;10448816;28;20286;-71
2022/12/18 02:35:30;;;;;;;23.23;13.70;;;-1.10;41.40;;;;;;10449227;28;20309;-71
2022/12/18 02:40:34;;;;;;;23.13;13.73;;;-1.10;41.60;;;;;;10448375;28;20229;-71
2022/12/18 02:45:47;;;;;;;20.87;12.33;;;-1.10;41.50;;;;;;10448144;28;20221;-71
2022/12/18 02:51:00;;;;;;;20.07;12.27;;;-1.10;41.90;;;;;;10447721;28;20319;-71
2022/12/18 02:56:08;;;;;;;17.70;12.13;;;-1.00;41.90;;;;;;10445000;28;20233;-71
2022/12/18 03:01:17;;;;;;;21.13;13.10;;;-1.00;41.70;;;;;;10447516;28;20279;-70
2022/12/18 03:06:26;;;;;;;23.83;13.87;;;-0.90;41.80;;;;;;10447833;28;20236;-71
2022/12/18 03:17:03;;;;;;;24.03;14.00;;;-0.90;42.50;;;;;;10447252;28;20239;-71
2022/12/18 03:22:08;;;;;;;22.13;13.27;;;-0.80;41.90;;;;;;10447004;28;20319;-71
2022/12/18 03:27:15;;;;;;;19.60;12.63;;;-0.80;41.70;;;;;;10447108;28;20691;-71
2022/12/18 03:32:25;;;;;;;22.17;14.20;;;-0.80;41.80;;;;;;10446929;28;20728;-71
2022/12/18 03:37:28;;;;;;;22.90;13.70;;;-0.70;41.90;;;;;;10446641;28;20228;-71
2022/12/18 03:42:40;;;;;;;24.90;14.60;;;-0.60;41.80;;;;;;10446864;28;20232;-71
2022/12/18 03:47:54;;;;;;;22.67;14.10;;;-0.60;41.80;;;;;;10446391;28;20237;-71
2022/12/18 03:53:03;;;;;;;18.03;12.23;;;-0.50;42.10;;;;;;10446434;28;20237;-71
2022/12/18 03:58:08;;;;;;;17.63;11.77;;;-0.60;41.70;;;;;;10446140;28;20742;-71
2022/12/18 04:03:14;;;;;;;19.80;12.07;;;-0.60;41.70;;;;;;10446367;28;20701;-70
2022/12/18 04:08:18;;;;;;;21.40;12.90;;;-0.60;41.70;;;;;;10446141;28;20286;-71
2022/12/18 04:13:25;;;;;;;18.43;12.10;;;-0.60;41.70;;;;;;10445918;28;20232;-71
2022/12/18 04:18:30;;;;;;;20.33;12.70;;;-0.60;41.90;;;;;;10446142;28;20649;-71
2022/12/18 04:23:33;;;;;;;21.73;12.87;;;-0.50;41.90;;;;;;10445868;28;20241;-71
2022/12/18 04:28:36;;;;;;;21.03;13.43;;;-0.50;41.80;;;;;;10446114;28;20221;-71
2022/12/18 04:33:40;;;;;;;21.83;13.60;;;-0.50;41.80;;;;;;10445558;28;20236;-71
2022/12/18 04:38:44;;;;;;;20.97;13.87;;;-0.50;41.90;;;;;;10445904;28;20790;-71
2022/12/18 04:43:47;;;;;;;20.23;14.40;;;-0.50;41.90;;;;;;10445703;28;20647;-71
2022/12/18 04:48:52;;;;;;;21.03;13.83;;;-0.40;41.90;;;;;;10447503;28;20286;-71
2022/12/18 04:53:55;;;;;;;22.13;13.10;;;-0.40;42.10;;;;;;10452825;28;20294;-71
2022/12/18 04:58:58;;;;;;;19.40;12.40;;;-0.30;41.90;;;;;;10452592;28;20231;-71
2022/12/18 05:04:03;;;;;;;19.20;12.73;;;-0.30;41.80;;;;;;10452230;28;20233;-71
2022/12/18 05:09:06;;;;;;;21.27;13.77;;;-0.30;41.80;;;;;;10452556;28;20236;-71
2022/12/18 05:14:09;;;;;;;22.93;14.37;;;-0.30;41.60;;;;;;10451884;28;20290;-71
2022/12/18 05:19:14;;;;;;;19.60;13.30;;;-0.30;41.80;;;;;;10450840;28;20236;-71
2022/12/18 05:24:17;;;;;;;19.07;11.93;;;-0.40;41.80;;;;;;10451839;28;20229;-71
2022/12/18 05:29:20;;;;;;;20.37;12.63;;;-0.40;41.80;;;;;;10451166;28;20232;-71
2022/12/18 05:34:24;;;;;;;21.13;11.93;;;-0.40;41.90;;;;;;10451458;28;20237;-71
2022/12/18 05:39:28;;;;;;;20.00;12.77;;;-0.30;42.00;;;;;;10450819;28;20792;-71
2022/12/18 05:44:31;;;;;;;20.20;11.93;;;-0.30;41.90;;;;;;10450810;28;20232;-71
2022/12/18 05:49:35;;;;;;;17.23;11.93;;;-0.30;41.80;;;;;;10450822;28;20232;-71
2022/12/18 05:54:38;;;;;;;20.47;12.40;;;-0.20;41.90;;;;;;10450366;28;20233;-71
2022/12/18 05:59:41;;;;;;;18.57;11.93;;;-0.20;41.80;;;;;;10450437;28;20228;-71
2022/12/18 06:04:46;;;;;;;20.83;12.73;;;-0.10;41.80;;;;;;10450320;28;20221;-71
2022/12/18 06:09:49;;;;;;;18.33;12.10;;;-0.20;41.70;;;;;;10449532;28;20232;-71
2022/12/18 06:14:52;;;;;;;18.00;11.97;;;-0.20;41.60;;;;;;10449431;28;20237;-71
2022/12/18 06:19:57;;;;;;;19.73;12.77;;;-0.20;41.70;;;;;;10449406;28;20720;-71
2022/12/18 06:25:00;;;;;;;21.10;12.27;;;-0.30;41.80;;;;;;10449045;28;20291;-71
2022/12/18 06:30:05;;;;;;;19.33;12.30;;;-0.30;41.80;;;;;;10448785;28;20294;-70
2022/12/18 06:35:10;;;;;;;19.47;11.77;;;-0.30;41.80;;;;;;10448600;28;20228;-71
2022/12/18 06:40:13;;;;;;;17.90;12.53;;;-0.20;42.00;;;;;;10448359;28;20873;-71
2022/12/18 06:45:17;;;;;;;18.47;12.83;;;-0.20;41.80;;;;;;10448585;28;20236;-71
2022/12/18 06:50:21;;;;;;;16.63;11.93;;;-0.20;41.90;;;;;;10447977;28;20229;-71
2022/12/18 06:55:24;;;;;;;20.90;12.57;;;-0.20;42.00;;;;;;10448045;28;20240;-71
2022/12/18 07:00:27;;;;;;;19.30;12.17;;;-0.20;42.00;;;;;;10448048;28;20339;-71
2022/12/18 07:05:32;;;;;;;19.73;12.30;;;-0.10;41.80;;;;;;10447815;28;20251;-71
2022/12/18 07:10:41;;;;;;;17.73;12.50;;;-0.10;41.80;;;;;;10447188;28;20630;-71
2022/12/18 07:15:50;;;;;;;15.73;10.80;;;-0.10;42.50;;;;;;10447159;28;20233;-71
2022/12/18 07:20:54;;;;;;;17.27;11.93;;;-0.10;41.80;;;;;;10447560;28;20225;-71
2022/12/18 07:26:02;;;;;;;17.50;11.63;;;-0.20;41.80;;;;;;10447256;28;20270;-71
2022/12/18 07:31:06;;;;;;;19.63;12.67;;;-0.20;41.90;;;;;;10446992;28;20236;-71
2022/12/18 07:36:12;;;;;;;17.67;12.17;;;-0.20;41.90;;;;;;10446656;28;20286;-71
2022/12/18 07:41:15;;;;;;;17.73;11.20;;;-0.30;41.90;;;;;;10446680;28;20240;-71
2022/12/18 07:46:19;;;;;;;18.67;12.13;;;-0.30;42.00;;;;;;10446872;28;20233;-72
2022/12/18 07:51:23;;;;;;;19.47;13.73;;;-0.30;42.00;;;;;;10446752;28;20237;-71
2022/12/18 07:56:26;;;;;;;19.93;12.90;;;-0.20;42.10;;;;;;10446464;28;20233;-71
2022/12/18 08:01:31;;;;;;;17.93;13.03;;;-0.20;42.10;;;;;;10446698;28;20232;-71
2022/12/18 08:06:36;;;;;;;17.70;12.00;;;-0.20;42.10;;;;;;10446850;28;20231;-71
2022/12/18 08:11:39;;;;;;;18.87;12.37;;;-0.20;42.20;;;;;;10446273;28;20251;-71
2022/12/18 08:16:42;;;;;;;22.00;15.67;;;-0.20;42.20;;;;;;10446705;28;20237;-71
2022/12/18 08:21:47;;;;;;;20.37;14.33;;;-0.10;42.20;;;;;;10445949;28;20228;-71
2022/12/18 08:26:50;;;;;;;19.80;13.73;;;-0.10;42.20;;;;;;10453602;28;20225;-72
2022/12/18 08:32:13;;;;;;;20.67;14.43;;;-0.10;42.10;;;;;;10453482;28;20315;-71
2022/12/18 08:37:18;;;;;;;20.87;13.47;;;0.00;42.20;;;;;;10454328;28;20237;-71
2022/12/18 08:47:41;;;;;;;17.00;12.83;;;0.00;42.00;;;;;;10452947;28;20220;-72
2022/12/18 08:52:45;;;;;;;20.93;14.83;;;0.00;41.90;;;;;;10453000;28;20233;-71
2022/12/18 08:57:50;;;;;;;19.70;13.30;;;0.10;42.00;;;;;;10453215;28;20237;-71
2022/12/18 09:02:53;;;;;;;16.97;11.93;;;0.10;42.00;;;;;;10452947;28;20229;-72
2022/12/18 09:07:57;;;;;;;19.03;13.00;;;0.10;42.00;;;;;;10452719;28;20225;-72
2022/12/18 09:13:01;;;;;;;17.37;12.27;;;0.10;41.90;;;;;;10452662;28;20232;-72
2022/12/18 09:18:04;;;;;;;17.67;12.10;;;0.10;41.90;;;;;;10452040;28;20239;-72
2022/12/18 09:23:09;;;;;;;16.97;12.27;;;0.10;41.90;;;;;;10441244;28;20228;-71
2022/12/18 09:28:16;;;;;;;17.93;11.93;;;0.10;42.00;;;;;;10433457;28;20221;-71
2022/12/18 09:33:19;;;;;;;18.90;12.30;;;0.10;42.00;;;;;;10441547;28;20294;-72
2022/12/18 09:38:24;;;;;;;18.20;11.80;;;0.10;42.00;;;;;;10439736;28;20221;-71
2022/12/18 09:43:31;;;;;;;16.77;12.17;;;0.10;42.00;;;;;;10430659;28;20232;-71
2022/12/18 09:48:37;;;;;;;15.07;11.23;;;0.10;42.00;;;;;;10439762;28;20221;-71
2022/12/18 09:53:45;;;;;;;18.97;11.80;;;0.20;42.00;;;;;;10442439;28;20216;-71
2022/12/18 09:58:55;;;;;;;15.90;11.50;;;0.20;42.00;;;;;;10433654;28;20229;-72
2022/12/18 10:03:58;;;;;;;16.97;12.03;;;0.30;42.00;;;;;;10423146;28;20225;-71
2022/12/18 10:09:08;;;;;;;18.57;13.37;;;0.30;42.00;;;;;;10428386;28;20709;-73
2022/12/18 10:14:20;;;;;;;18.23;12.33;;;0.40;42.00;;;;;;10424855;28;20221;-73
2022/12/18 10:19:38;;;;;;;19.40;13.70;;;0.40;42.10;;;;;;10427717;28;20233;-73
2022/12/18 10:24:49;;;;;;;17.90;12.77;;;0.40;41.80;;;;;;10424674;28;20216;-72
2022/12/18 10:29:53;;;;;;;19.60;13.27;;;0.40;41.80;;;;;;10430285;28;20641;-73
2022/12/18 10:34:58;;;;;;;15.87;11.70;;;0.50;41.90;;;;;;10427852;28;20639;-73
2022/12/18 10:40:11;;;;;;;17.90;12.53;;;0.50;41.80;;;;;;10429856;28;20693;-73
2022/12/18 10:45:22;;;;;;;17.40;13.63;;;0.60;41.80;;;;;;10430825;28;20761;-71
2022/12/18 10:50:30;;;;;;;20.63;13.27;;;0.60;41.60;;;;;;10419930;28;20234;-71
2022/12/18 10:55:56;;;;;;;19.27;13.20;;;0.60;41.70;;;;;;10425709;28;20667;-72
2022/12/18 11:01:09;;;;;;;17.93;13.37;;;0.60;41.90;;;;;;10419609;28;20225;-72
2022/12/18 11:06:14;;;;;;;19.23;13.57;;;0.70;41.90;;;;;;10424625;28;20679;-71
2022/12/18 11:11:22;;;;;;;19.47;14.00;;;0.70;41.70;;;;;;10424338;28;20228;-71
2022/12/18 11:16:26;;;;;;;17.33;12.97;;;0.80;41.90;;;;;;10423807;28;20233;-71
2022/12/18 11:21:29;;;;;;;18.30;13.20;;;0.80;41.80;;;;;;10429298;28;20229;-72
2022/12/18 11:26:36;;;;;;;17.10;13.17;;;1.00;41.80;;;;;;10418795;28;20236;-71
2022/12/18 11:31:40;;;;;;;19.83;13.80;;;1.00;41.90;;;;;;10422376;28;20229;-71
2022/12/18 11:36:45;;;;;;;18.07;13.30;;;1.10;41.90;;;;;;10428262;28;20229;-72
2022/12/18 11:42:11;;;;;;;16.47;13.30;;;1.20;41.90;;;;;;10429262;28;20795;-72
2022/12/18 11:47:26;;;;;;;15.83;12.53;;;1.20;41.60;;;;;;10429633;28;20213;-72
2022/12/18 11:52:35;;;;;;;15.47;12.07;;;1.20;41.20;;;;;;10426846;28;20230;-72
2022/12/18 11:57:49;;;;;;;16.10;12.43;;;1.20;41.30;;;;;;10426569;28;20228;-72
2022/12/18 12:03:21;;;;;;;17.93;14.00;;;1.20;41.30;;;;;;10434627;28;20229;-71
2022/12/18 12:08:36;;;;;;;17.17;13.27;;;1.20;41.30;;;;;;10435018;28;20323;-72
2022/12/18 12:13:54;;;;;;;19.03;14.50;;;1.20;41.50;;;;;;10448987;28;20236;-71
2022/12/18 12:19:07;;;;;;;17.20;12.97;;;1.20;41.30;;;;;;10454251;28;20229;-71
2022/12/18 12:24:38;;;;;;;18.20;13.40;;;1.20;41.30;;;;;;10453991;28;20225;-71
2022/12/18 12:29:52;;;;;;;16.83;12.83;;;1.20;41.40;;;;;;10450064;28;20233;-71
2022/12/18 12:35:07;;;;;;;17.50;13.53;;;1.30;41.60;;;;;;10452816;28;20794;-71
2022/12/18 12:40:18;;;;;;;20.23;14.73;;;1.30;41.50;;;;;;10420564;28;20240;-71
2022/12/18 12:45:49;;;;;;;19.40;14.17;;;1.40;41.30;;;;;;10440588;28;20286;-71
2022/12/18 12:50:54;;;;;;;20.13;13.97;;;1.40;41.40;;;;;;10452555;28;20283;-71
2022/12/18 12:55:58;;;;;;;17.90;13.77;;;1.50;41.40;;;;;;10452802;28;20732;-71
2022/12/18 13:01:13;;;;;;;19.73;13.67;;;1.50;41.40;;;;;;10452438;28;20240;-71
2022/12/18 13:06:34;;;;;;;20.67;14.63;;;1.50;41.20;;;;;;10452330;28;20225;-71
2022/12/18 13:17:30;;;;;;;15.57;12.57;;;1.60;41.10;;;;;;10451470;28;20278;-71
2022/12/18 13:22:36;;;;;;;17.40;12.83;;;1.60;41.00;;;;;;10449093;28;20601;-71
2022/12/18 13:28:08;;;;;;;15.77;12.60;;;1.70;41.10;;;;;;10448073;28;20232;-72
2022/12/18 13:33:48;;;;;;;17.70;13.20;;;1.60;41.80;;;;;;10437527;28;20267;-71
2022/12/18 13:39:31;;;;;;;16.27;12.70;;;1.70;40.70;;;;;;10448446;28;20275;-71
2022/12/18 13:44:39;;;;;;;16.47;12.80;;;1.60;40.80;;;;;;10444919;28;20235;-71
2022/12/18 13:49:45;;;;;;;17.73;13.70;;;1.50;40.80;;;;;;10449628;28;20842;-71
2022/12/18 13:54:53;;;;;;;16.37;12.40;;;1.40;40.60;;;;;;10449531;28;20724;-71
2022/12/18 13:59:57;;;;;;;19.13;13.97;;;1.20;40.50;;;;;;10449374;28;20263;-71
2022/12/18 14:05:01;;;;;;;18.43;13.87;;;1.10;40.70;;;;;;10449528;28;20255;-71
2022/12/18 14:10:16;;;;;;;17.90;13.23;;;1.10;40.90;;;;;;10449186;28;20586;-71
2022/12/18 14:15:42;;;;;;;21.93;15.33;;;1.00;41.10;;;;;;10448831;28;20282;-71
2022/12/18 14:20:49;;;;;;;18.07;13.10;;;1.00;41.10;;;;;;10448497;28;20484;-71
2022/12/18 14:25:56;;;;;;;18.90;13.70;;;1.00;41.00;;;;;;10448523;28;20261;-71
2022/12/18 14:31:19;;;;;;;18.67;13.27;;;1.10;41.30;;;;;;10447734;28;20225;-71
2022/12/18 14:36:25;;;;;;;17.17;13.17;;;1.00;41.10;;;;;;10447912;28;20264;-71
2022/12/18 14:41:29;;;;;;;15.77;12.30;;;1.00;41.10;;;;;;10448111;28;20233;-71
2022/12/18 14:46:36;;;;;;;18.07;13.07;;;0.90;41.10;;;;;;10447827;28;20217;-71
2022/12/18 14:51:39;;;;;;;17.20;12.80;;;0.90;41.30;;;;;;10447492;28;20696;-71
2022/12/18 14:56:47;;;;;;;15.50;11.13;;;0.90;41.30;;;;;;10443200;28;20756;-70
2022/12/18 15:01:59;;;;;;;16.50;12.77;;;0.90;42.00;;;;;;10433987;28;20252;-72
2022/12/18 15:07:08;;;;;;;19.20;13.07;;;1.00;42.10;;;;;;10427413;28;20232;-72
2022/12/18 15:12:30;;;;;;;15.90;13.20;;;1.00;41.40;;;;;;10424854;28;20232;-72
2022/12/18 15:17:33;;;;;;;18.27;12.30;;;1.00;41.20;;;;;;10429202;28;20274;-72
2022/12/18 15:22:37;;;;;;;16.60;12.23;;;1.00;40.90;;;;;;10424965;28;20624;-72
2022/12/18 15:27:48;;;;;;;16.30;12.07;;;0.90;40.80;;;;;;10418202;28;20236;-72
2022/12/18 15:32:52;;;;;;;17.63;12.43;;;0.80;40.90;;;;;;10420975;28;20303;-72
2022/12/18 15:37:56;;;;;;;16.83;12.17;;;0.70;40.90;;;;;;10424217;28;20236;-71
2022/12/18 15:48:22;;;;;;;16.20;12.13;;;0.60;40.90;;;;;;10438966;28;20232;-71
2022/12/18 15:53:28;;;;;;;19.47;13.07;;;0.50;41.10;;;;;;10445926;28;20228;-71
2022/12/18 15:58:33;;;;;;;17.43;12.30;;;0.60;41.20;;;;;;10446335;28;20497;-71
2022/12/18 16:03:37;;;;;;;15.67;11.67;;;0.50;41.20;;;;;;10445671;28;20224;-71
2022/12/18 16:08:40;;;;;;;17.50;12.03;;;0.50;41.00;;;;;;10445772;28;20221;-71
2022/12/18 16:13:45;;;;;;;19.10;13.60;;;0.40;40.80;;;;;;10446193;28;20661;-71
2022/12/18 16:18:49;;;;;;;25.43;16.97;;;0.30;40.90;;;;;;10426616;28;20232;-71
2022/12/18 16:23:52;;;;;;;25.63;17.30;;;0.30;41.10;;;;;;10426997;28;20237;-71
2022/12/18 16:28:56;;;;;;;23.47;16.00;;;0.30;41.20;;;;;;10426001;28;20225;-71
2022/12/18 16:34:21;;;;;;;15.97;12.20;;;0.40;41.30;;;;;;10429903;28;20267;-71
2022/12/18 16:39:25;;;;;;;18.43;12.80;;;0.30;41.30;;;;;;10434220;28;20229;-72
2022/12/18 16:44:30;;;;;;;19.63;14.40;;;0.30;41.10;;;;;;10432270;28;20229;-70
2022/12/18 16:49:33;;;;;;;19.17;13.10;;;0.30;41.10;;;;;;10439452;28;20229;-71
2022/12/18 16:54:36;;;;;;;20.73;14.10;;;0.30;41.20;;;;;;10436171;28;20225;-71
2022/12/18 16:59:41;;;;;;;18.67;14.37;;;0.30;41.20;;;;;;10438359;28;20224;-71
2022/12/18 17:04:44;;;;;;;24.03;18.40;;;0.30;41.10;;;;;;10434817;28;20225;-71
2022/12/18 17:09:49;;;;;;;18.43;13.97;;;0.40;41.10;;;;;;10435820;28;20233;-71
2022/12/18 17:14:53;;;;;;;17.60;13.43;;;0.40;41.00;;;;;;10437135;28;20228;-71
2022/12/18 17:19:56;;;;;;;20.57;14.73;;;0.30;40.80;;;;;;10439706;28;20244;-71
2022/12/18 17:24:59;;;;;;;17.87;13.40;;;0.20;40.90;;;;;;10432397;28;20228;-71
2022/12/18 17:30:05;;;;;;;21.33;13.53;;;0.10;40.90;;;;;;10434500;28;20811;-71
2022/12/18 17:35:09;;;;;;;20.57;13.87;;;0.10;41.20;;;;;;10434109;28;20240;-71
2022/12/18 17:40:12;;;;;;;21.50;14.70;;;0.10;41.30;;;;;;10436402;28;20255;-71
2022/12/18 17:45:17;;;;;;;17.93;14.37;;;0.10;41.30;;;;;;10434145;28;20227;-71
2022/12/18 17:50:20;;;;;;;18.50;13.60;;;0.10;41.20;;;;;;10433237;28;20306;-71
2022/12/18 17:55:23;;;;;;;15.13;12.37;;;0.10;41.40;;;;;;10429194;28;20229;-71
2022/12/18 18:00:28;;;;;;;16.60;11.73;;;0.10;41.30;;;;;;10431850;28;20271;-71
2022/12/18 18:05:31;;;;;;;17.30;12.83;;;0.20;41.30;;;;;;10415482;28;20221;-70
2022/12/18 18:10:37;;;;;;;20.07;14.87;;;0.10;41.20;;;;;;10408530;28;20279;-70
2022/12/18 18:15:41;;;;;;;19.90;15.83;;;0.10;41.30;;;;;;10408051;28;20539;-70
2022/12/18 18:20:44;;;;;;;17.23;13.23;;;0.10;41.30;;;;;;10408548;28;20634;-70
2022/12/18 18:25:47;;;;;;;17.53;13.27;;;0.10;41.30;;;;;;10408390;28;20237;-70
2022/12/18 18:30:53;;;;;;;18.13;13.07;;;0.10;41.30;;;;;;10407753;28;20237;-70
2022/12/18 18:35:56;;;;;;;18.93;14.03;;;0.10;41.30;;;;;;10407987;28;20225;-70
2022/12/18 18:41:00;;;;;;;18.80;13.40;;;0.00;41.30;;;;;;10407009;28;20651;-70
2022/12/18 18:46:05;;;;;;;18.73;12.73;;;0.00;41.40;;;;;;10405911;28;20234;-70
2022/12/18 18:51:12;;;;;;;15.83;11.77;;;0.00;41.50;;;;;;10406933;28;20916;-70
2022/12/18 18:56:26;;;;;;;15.43;11.87;;;0.00;41.60;;;;;;10407347;28;20775;-70
2022/12/18 19:01:51;;;;;;;16.37;12.03;;;0.00;41.60;;;;;;10407086;28;20257;-70
2022/12/18 19:06:54;;;;;;;18.47;12.90;;;0.10;41.60;;;;;;10406374;28;20257;-69
2022/12/18 19:17:20;;;;;;;18.63;14.00;;;0.20;41.50;;;;;;10406348;28;20626;-70
2022/12/18 19:22:31;;;;;;;19.43;13.77;;;0.20;41.50;;;;;;10406511;28;20295;-70
2022/12/18 19:27:37;;;;;;;18.33;13.83;;;0.20;41.50;;;;;;10406052;28;20229;-70
2022/12/18 19:32:43;;;;;;;18.30;13.87;;;0.40;41.70;;;;;;10406123;28;21001;-70
2022/12/18 19:37:46;;;;;;;18.60;13.67;;;0.20;42.20;;;;;;10405802;28;20233;-70
2022/12/18 19:42:49;;;;;;;22.57;15.57;;;0.30;41.60;;;;;;10405649;28;20327;-71
2022/12/18 19:47:54;;;;;;;17.10;12.93;;;0.20;41.40;;;;;;10405846;28;20234;-71
2022/12/18 19:53:06;;;;;;;30.97;19.10;;;0.20;41.60;;;;;;10373093;28;20238;-71
2022/12/18 19:58:11;;;;;;;24.60;17.10;;;0.20;41.60;;;;;;10365241;28;20321;-72
2022/12/18 20:03:16;;;;;;;19.70;14.50;;;0.20;41.60;;;;;;10428365;28;20247;-70
2022/12/18 20:08:35;;;;;;;18.77;13.43;;;0.20;41.70;;;;;;10437429;28;20220;-72
2022/12/18 20:13:38;;;;;;;17.60;13.33;;;0.20;41.70;;;;;;10445984;28;20240;-72
2022/12/18 20:18:43;;;;;;;23.67;17.13;;;0.20;41.80;;;;;;10409696;28;20604;-71
2022/12/18 20:23:47;;;;;;;18.40;14.30;;;0.30;41.90;;;;;;10423100;28;20951;-72
2022/12/18 20:28:50;;;;;;;20.67;14.83;;;0.30;41.70;;;;;;10453646;28;20264;-71
2022/12/18 20:33:56;;;;;;;22.57;15.90;;;0.30;41.60;;;;;;10453584;28;20363;-71
2022/12/18 20:39:03;;;;;;;21.07;15.47;;;0.40;41.80;;;;;;10419699;28;20261;-72
2022/12/18 20:44:11;;;;;;;19.87;13.67;;;0.30;41.70;;;;;;10411991;28;20257;-71
2022/12/18 20:49:27;;;;;;;19.13;15.10;;;0.30;41.70;;;;;;10411654;28;20588;-71
2022/12/18 20:54:30;;;;;;;21.47;15.40;;;0.40;41.80;;;;;;10428149;28;20226;-71
2022/12/18 20:59:33;;;;;;;23.07;15.47;;;0.40;41.60;;;;;;10411470;28;20252;-71
2022/12/18 21:04:38;;;;;;;29.50;18.37;;;0.40;41.50;;;;;;10427506;28;20228;-71
2022/12/18 21:09:41;;;;;;;20.53;14.63;;;0.40;41.60;;;;;;10411180;28;20234;-71
2022/12/18 21:14:45;;;;;;;23.47;16.27;;;0.30;41.50;;;;;;10410573;28;20257;-71
2022/12/18 21:19:52;;;;;;;23.13;15.10;;;0.30;41.60;;;;;;10410520;28;20244;-71
2022/12/18 21:24:56;;;;;;;18.63;14.47;;;0.30;41.60;;;;;;10475194;28;20308;-71
2022/12/18 21:30:00;;;;;;;20.37;14.87;;;0.30;41.60;;;;;;10484500;28;20236;-71
2022/12/18 21:35:05;;;;;;;19.60;14.37;;;0.30;41.50;;;;;;10451211;28;20232;-71
2022/12/18 21:40:10;;;;;;;20.50;13.47;;;0.30;41.50;;;;;;10451109;28;20252;-72
2022/12/18 21:45:13;;;;;;;19.27;13.03;;;0.30;41.60;;;;;;10424697;28;20225;-70
2022/12/18 21:50:18;;;;;;;17.97;13.73;;;0.30;41.50;;;;;;10409571;28;20238;-71
2022/12/18 21:55:21;;;;;;;18.47;14.10;;;0.30;41.30;;;;;;10409267;28;20226;-71
2022/12/18 22:00:25;;;;;;;19.97;13.87;;;0.40;41.30;;;;;;10422712;28;20235;-71
2022/12/18 22:05:29;;;;;;;22.63;14.67;;;0.20;41.20;;;;;;10449417;28;20256;-71
2022/12/18 22:10:33;;;;;;;18.87;13.53;;;0.20;41.30;;;;;;10449695;28;20232;-71
2022/12/18 22:15:36;;;;;;;20.37;13.87;;;0.20;41.50;;;;;;10406515;28;20268;-71
2022/12/18 22:20:40;;;;;;;19.97;15.07;;;0.20;41.60;;;;;;10392332;28;20287;-71
2022/12/18 22:25:43;;;;;;;19.13;13.83;;;0.20;41.30;;;;;;10384269;28;20237;-71
2022/12/18 22:30:46;;;;;;;20.47;14.80;;;0.20;41.10;;;;;;10386873;28;20237;-71
2022/12/18 22:35:52;;;;;;;18.23;14.63;;;0.10;41.10;;;;;;10387127;28;20226;-71
2022/12/18 22:40:55;;;;;;;18.87;13.87;;;0.10;41.00;;;;;;10395998;28;20279;-70
2022/12/18 22:45:58;;;;;;;19.87;14.90;;;0.10;41.10;;;;;;10384888;28;20316;-71
2022/12/18 22:51:04;;;;;;;19.77;14.90;;;0.00;40.60;;;;;;10430809;28;20229;-71
2022/12/18 22:56:07;;;;;;;19.77;14.63;;;-0.10;40.60;;;;;;10427679;28;20235;-70
2022/12/18 23:01:19;;;;;;;18.40;14.13;;;-0.20;40.70;;;;;;10433252;28;20290;-71
2022/12/18 23:06:26;;;;;;;20.80;13.57;;;-0.30;40.80;;;;;;10433111;28;20232;-71
2022/12/18 23:11:29;;;;;;;18.67;13.67;;;-0.40;40.90;;;;;;10429611;28;20254;-70
2022/12/18 23:16:33;;;;;;;19.10;14.03;;;-0.30;41.10;;;;;;10433735;28;20221;-71
2022/12/18 23:21:38;;;;;;;18.20;14.10;;;-0.40;41.00;;;;;;10428774;28;20225;-71
2022/12/18 23:26:41;;;;;;;18.00;14.07;;;-0.40;40.90;;;;;;10425307;28;20229;-71
2022/12/18 23:31:45;;;;;;;19.57;13.63;;;-0.40;40.80;;;;;;10428035;28;20233;-71
2022/12/18 23:36:49;;;;;;;20.63;15.10;;;-0.40;40.80;;;;;;10429277;28;20251;-70
2022/12/18 23:41:58;;;;;;;19.37;14.13;;;-0.40;40.70;;;;;;10434966;28;20233;-70
2022/12/18 23:47:05;;;;;;;19.20;14.37;;;-0.50;40.80;;;;;;10433394;28;20244;-70
2022/12/18 23:52:10;;;;;;;19.93;13.43;;;-0.50;40.90;;;;;;10421447;28;20228;-71
2022/12/18 23:57:13;;;;;;;18.67;14.13;;;-0.50;40.90;;;;;;10434281;28;20224;-71
